Comanche, Montana
Current Conditions -  °F | °C
As of 5:53 AM on Sunday 23 Nov 2014 (Local Time) from KBIL Reporting Station
Few Clouds Few Clouds  
Wind Chill: 22°   Ceiling: Unl
Heat Index: 33°   Visibility: 10mi
Dew Point: 17°   Wind: 18mph
Humidity: 52%   Direction: 290°WNW
Pressure: 29.81"   Gusts: NA
Location:  46.053°N, 108.734°W
Report Text: KBIL 231253Z 29016KT 10SM FEW150 01/M08 A2981 RMK AO2 SLP111 T00061083 $
Loading
Personal Weather Stations






























Interactive Weather Map New forecast layout! Learn more

10-Day Weather Forecast

Advertisements
Track Severe Weather on mobile